Latest Weather Observations for Fowlers Gap

IDN60801

Issued at 4:42 pm EST Thursday 18 July 2019 (issued every 10 minutes, with the page automatically refreshed every 10 minutes)

About weather observations | Map of weather stations | Latest weather observations for NSW | Other Formats
Station Details ID: 046128 Name: FOWLERS GAP AWS Lat: -31.09 Lon: 141.70 Height: 181.0 m
Data from the previous 72 hours. | See also: Recent months at Fowlers Gap
Date/Time
EST
Temp
°C
App
Temp
°C
Dew
Point
°C
Rel
Hum
%
Delta-T
°C
Wind Press
QNH
hPa
Press
MSL
hPa
Rain since
9am
mm
Dir  Spd
km/h
Gust
km/h
Spd
kts
Gust
kts
18/04:30pm 16.3 12.2 2.3 39 6.3 NW 13 17 7 9 1020.5 1020.7 0.0
18/04:00pm 16.8 13.1 2.4 38 6.5 NW 11 17 6 9 1020.7 1020.9 0.0
18/03:30pm 16.8 13.9 2.8 39 6.4 NNW 7 19 4 10 1020.7 1020.9 0.0
18/03:00pm 16.4 12.8 2.8 40 6.2 NW 11 15 6 8 1020.7 1020.9 0.0
18/02:30pm 16.0 12.8 3.1 42 5.9 WNW 9 15 5 8 1020.7 1020.9 0.0
18/02:00pm 15.8 12.7 3.6 44 5.6 WNW 9 15 5 8 1021.3 1021.4 0.0
18/01:30pm 15.3 12.7 4.1 47 5.2 WNW 7 13 4 7 1021.6 1021.7 0.0
18/01:00pm 14.9 12.9 4.6 50 4.8 SSE 4 9 2 5 1021.9 1022.1 0.0
18/12:30pm 14.3 11.8 4.6 52 4.5 NNE 7 11 4 6 1022.5 1022.7 0.0
18/12:00pm 14.2 12.3 5.0 54 4.3 N 4 9 2 5 1022.9 1023.1 0.0
18/11:30am 13.5 10.6 4.9 56 4.0 ENE 9 15 5 8 1023.2 1023.4 0.0
18/11:00am 13.1 11.6 4.8 57 3.8 E 2 7 1 4 1023.6 1023.8 0.0
18/10:30am 11.5 10.2 4.3 61 3.3 CALM 0 2 0 1 1023.9 1024.1 0.0
18/10:00am 9.9 7.4 3.6 65 2.8 SW 6 7 3 4 1023.8 1024.0 0.0
18/09:30am 8.4 6.5 2.8 68 2.4 W 2 6 1 3 1023.9 1024.1 0.0
18/09:00am 6.5 4.1 2.0 73 1.8 WNW 4 6 2 3 1023.7 1023.9 0.0
18/08:30am 3.6 1.7 0.3 79 1.3 CALM 0 0 0 0 1023.6 1023.8 0.0
18/08:00am 2.7 -0.6 -0.1 82 1.0 WNW 7 7 4 4 1023.3 1023.5 0.0
18/07:30am 1.8 -1.4 -0.4 85 0.8 WNW 6 6 3 3 1022.9 1023.1 0.0
18/07:00am 1.9 -0.1 -0.3 85 0.8 CALM 0 0 0 0 1022.6 1022.8 0.0
18/06:30am 2.6 0.7 0.3 85 0.9 CALM 0 0 0 0 1022.4 1022.6 0.0
18/06:00am 3.0 0.0 0.7 85 0.9 W 6 7 3 4 1022.2 1022.4 0.0
18/05:30am 3.1 0.1 0.5 83 1.0 W 6 7 3 4 1022.0 1022.2 0.0
18/05:00am 3.6 1.8 1.0 83 1.0 CALM 0 0 0 0 1022.0 1022.2 0.0
18/04:30am 4.1 1.6 1.3 82 1.1 WSW 4 11 2 6 1022.1 1022.3 0.0
18/04:00am 4.5 1.6 1.4 80 1.2 W 6 9 3 5 1022.2 1022.4 0.0
18/03:30am 5.6 2.6 2.1 78 1.4 WSW 7 9 4 5 1022.3 1022.5 0.0
18/03:00am 5.9 2.9 2.0 76 1.6 WNW 7 9 4 5 1022.3 1022.5 0.0
18/02:30am 6.9 3.9 2.2 72 1.9 W 7 9 4 5 1022.4 1022.6 0.0
18/02:00am 6.8 4.0 2.3 73 1.9 SSW 6 11 3 6 1022.4 1022.6 0.0
18/01:30am 7.8 4.6 2.9 71 2.1 SSW 9 11 5 6 1022.5 1022.7 0.0
18/01:00am 8.1 5.3 3.4 72 2.0 SW 7 9 4 5 1022.7 1022.9 0.0
18/12:30am 8.2 4.3 3.3 71 2.1 SW 13 13 7 7 1022.7 1022.9 0.0
18/12:00am 8.5 5.4 3.6 71 2.1 W 9 11 5 6 1023.1 1023.3 0.0
 
Date/Time
EST
Temp
°C
App
Temp
°C
Dew
Point
°C
Rel
Hum
%
Delta-T
°C
Wind Press
QNH
hPa
Press
MSL
hPa
Rain since
9am
mm
Dir  Spd
km/h
Gust
km/h
Spd
kts
Gust
kts
17/11:30pm 9.8 6.8 4.0 67 2.6 SW 9 15 5 8 1023.1 1023.3 0.0
17/11:00pm 10.4 6.3 4.5 67 2.7 SSW 15 24 8 13 1023.0 1023.2 0.0
17/10:30pm 9.7 6.0 4.7 71 2.3 SW 13 17 7 9 1022.8 1023.0 0.0
17/10:00pm 9.6 5.9 4.4 70 2.3 W 13 13 7 7 1022.5 1022.7 0.0
17/09:30pm 10.2 6.9 4.8 69 2.5 SW 11 13 6 7 1022.5 1022.7 0.0
17/09:00pm 10.9 7.7 5.0 67 2.7 WSW 11 13 6 7 1022.3 1022.5 0.0
17/08:30pm 12.7 9.2 5.6 62 3.4 W 13 17 7 9 1022.4 1022.6 0.0
17/08:00pm 12.6 8.7 5.5 62 3.3 WSW 15 17 8 9 1022.2 1022.4 0.0
17/07:30pm 14.4 9.9 6.3 58 3.9 W 19 24 10 13 1022.0 1022.2 0.0
17/07:00pm 14.8 10.7 6.4 57 4.1 W 17 24 9 13 1021.8 1021.9 0.0
17/06:30pm 15.2 11.9 6.5 56 4.3 W 13 17 7 9 1021.6 1021.7 0.0
17/06:00pm 16.0 11.9 6.4 53 4.7 W 17 20 9 11 1021.6 1021.7 0.0
17/05:30pm 17.0 12.0 6.5 50 5.2 W 22 30 12 16 1021.4 1021.5 0.0
17/05:00pm 17.6 12.7 6.8 49 5.4 W 22 28 12 15 1021.3 1021.4 0.0
17/04:30pm 17.9 12.6 7.0 49 5.5 W 24 32 13 17 1021.2 1021.3 0.0
17/04:00pm 18.0 12.3 6.8 48 5.6 W 26 35 14 19 1021.4 1021.5 0.0
17/03:30pm 18.3 13.1 7.1 48 5.7 W 24 33 13 18 1021.6 1021.7 0.0
17/03:00pm 18.4 13.2 7.2 48 5.7 W 24 30 13 16 1021.7 1021.8 0.0
17/02:30pm 17.6 12.8 7.4 51 5.2 W 22 30 12 16 1022.1 1022.3 0.0
17/02:00pm 17.5 12.7 7.5 52 5.1 W 22 32 12 17 1022.4 1022.6 0.0
17/01:30pm 16.6 12.7 7.3 54 4.7 WNW 17 28 9 15 1022.8 1023.0 0.0
17/01:00pm 16.3 12.5 7.5 56 4.4 WNW 17 24 9 13 1023.4 1023.6 0.0
17/12:30pm 15.6 11.8 7.6 59 4.0 WNW 17 26 9 14 1024.0 1024.2 0.0
17/12:00pm 15.1 11.3 7.6 61 3.7 WNW 17 24 9 13 1024.8 1025.0 0.0
17/11:30am 14.8 11.7 7.4 61 3.7 WNW 13 22 7 12 1025.1 1025.3 0.0
17/11:00am 14.6 12.0 7.9 64 3.3 NW 11 19 6 10 1025.5 1025.7 0.0
17/10:30am 12.8 11.7 7.0 68 2.8 S 2 6 1 3 1025.8 1026.0 0.0
17/10:00am 10.6 9.3 6.2 74 2.1 W 2 7 1 4 1025.8 1026.0 0.0
17/09:30am 8.3 7.2 5.1 80 1.4 CALM 0 0 0 0 1025.7 1025.9 0.0
17/09:00am 5.9 4.5 3.6 85 1.0 CALM 0 0 0 0 1025.6 1025.8 0.0
17/08:30am 4.4 2.5 3.1 91 0.5 WSW 2 6 1 3 1025.6 1025.8 0.0
17/08:00am 2.7 0.7 2.1 96 0.2 WSW 2 6 1 3 1025.3 1025.5 0.0
17/07:30am 2.0 0.2 1.0 93 0.4 CALM 0 0 0 0 1025.2 1025.4 0.0
17/07:00am 2.2 0.4 1.2 93 0.4 CALM 0 0 0 0 1024.9 1025.1 0.0
17/06:30am 2.4 0.6 1.4 93 0.4 CALM 0 0 0 0 1024.8 1025.0 0.0
17/06:00am 2.7 0.9 1.4 91 0.5 CALM 0 0 0 0 1024.7 1024.9 0.0
17/05:30am 3.2 1.5 1.9 91 0.5 CALM 0 0 0 0 1024.8 1025.0 0.0
17/05:00am 3.2 1.5 1.7 90 0.6 CALM 0 0 0 0 1024.8 1025.0 0.0
17/04:30am 3.4 1.7 1.9 90 0.6 CALM 0 0 0 0 1024.9 1025.1 0.0
17/04:00am 3.7 2.0 2.1 89 0.6 CALM 0 0 0 0 1025.1 1025.3 0.0
17/03:30am 4.0 2.4 2.2 88 0.7 CALM 0 0 0 0 1025.3 1025.5 0.0
17/03:00am 4.5 3.0 2.8 89 0.7 CALM 0 0 0 0 1025.6 1025.8 0.0
17/02:30am 4.9 3.4 3.2 89 0.7 CALM 0 0 0 0 1025.9 1026.1 0.0
17/02:00am 5.5 4.2 4.0 90 0.6 CALM 0 0 0 0 1026.1 1026.3 0.0
17/01:30am 5.6 4.3 3.9 89 0.7 CALM 0 0 0 0 1026.4 1026.6 0.0
17/01:00am 6.0 4.6 3.8 86 0.9 CALM 0 0 0 0 1026.5 1026.8 0.0
17/12:30am 7.0 5.9 5.2 88 0.8 CALM 0 0 0 0 1026.8 1027.0 0.0
17/12:00am 7.7 5.5 5.5 86 1.0 SSW 6 7 3 4 1027.0 1027.2 0.0
 
Date/Time
EST
Temp
°C
App
Temp
°C
Dew
Point
°C
Rel
Hum
%
Delta-T
°C
Wind Press
QNH
hPa
Press
MSL
hPa
Rain since
9am
mm
Dir  Spd
km/h
Gust
km/h
Spd
kts
Gust
kts
16/11:30pm 7.9 5.5 5.2 83 1.2 SSW 7 7 4 4 1027.2 1027.4 0.0
16/11:00pm 9.0 7.4 6.4 84 1.2 SW 4 6 2 3 1027.3 1027.5 0.0
16/10:30pm 9.3 8.0 6.2 81 1.4 WSW 2 7 1 4 1027.3 1027.5 0.0
16/10:00pm 9.4 8.1 6.1 80 1.5 SSW 2 6 1 3 1027.6 1027.8 0.0
16/09:30pm 9.7 8.8 6.1 78 1.7 CALM 0 0 0 0 1027.5 1027.7 0.0
16/09:00pm 10.5 9.0 6.6 77 1.8 SSE 4 7 2 4 1027.4 1027.6 0.0
16/08:30pm 11.2 9.2 6.9 75 2.1 S 7 9 4 5 1027.4 1027.6 0.0
16/08:00pm 12.1 10.1 7.2 72 2.4 SE 7 11 4 6 1027.0 1027.2 0.0
16/07:30pm 12.6 9.9 7.3 70 2.6 SSE 11 13 6 7 1027.2 1027.4 0.0
16/07:00pm 13.5 11.2 7.5 67 2.9 SSE 9 11 5 6 1026.5 1026.8 0.0
16/06:30pm 14.7 12.2 8.0 64 3.4 SSE 11 13 6 7 1026.3 1026.5 0.0
16/06:00pm 15.4 12.5 8.2 62 3.6 SSE 13 17 7 9 1026.1 1026.3 0.0
16/05:30pm 16.2 13.3 8.2 59 4.1 S 13 19 7 10 1025.9 1026.1 0.0
16/05:00pm 16.6 13.7 8.1 57 4.3 S 13 17 7 9 1025.8 1026.0 0.0
16/04:30pm 16.9 13.7 8.3 57 4.4 S 15 20 8 11 1025.9 1026.1 0.0
16/04:00pm 16.8 13.2 8.5 58 4.3 S 17 20 9 11 1025.9 1026.1 0.0
16/03:30pm 17.1 13.2 8.5 57 4.4 SSE 19 28 10 15 1026.0 1026.2 0.0
16/03:00pm 16.7 13.1 8.4 58 4.2 S 17 24 9 13 1026.2 1026.4 0.0
16/02:30pm 17.0 13.9 8.9 59 4.2 SSW 15 30 8 16 1026.3 1026.5 0.0
16/02:00pm 16.0 12.4 8.5 61 3.8 S 17 24 9 13 1026.8 1027.0 0.0
16/01:30pm 15.6 12.1 8.6 63 3.6 S 17 24 9 13 1027.4 1027.6 0.0
16/01:00pm 15.0 11.5 8.7 66 3.2 S 17 24 9 13 1027.8 1028.0 0.0
16/12:30pm 13.8 10.4 9.0 73 2.5 SSW 17 22 9 12 1028.3 1028.5 0.0
16/12:00pm 13.7 10.2 8.7 72 2.5 SSE 17 24 9 13 1028.8 1029.0 0.0
16/11:30am 12.4 9.6 8.5 77 2.0 SE 13 22 7 12 1029.2 1029.4 0.0
16/11:00am 11.3 8.6 10.2 93 0.6 SSW 15 20 8 11 1029.4 1029.6 0.0
16/10:30am 11.4 8.7 8.8 84 1.3 SSW 13 19 7 10 1029.7 1029.9 0.0
16/10:00am 11.1 8.4 9.0 87 1.0 SSW 13 19 7 10 1029.5 1029.7 0.0
16/09:30am 10.2 7.1 9.0 92 0.6 SSE 15 19 8 10 1029.4 1029.6 0.0
16/09:00am 9.8 7.3 9.7 99 0.1 S 13 19 7 10 1029.3 1029.5 0.0
16/08:30am 9.6 7.0 9.5 99 0.1 S 13 15 7 8 1029.0 1029.2 0.0
16/08:00am 8.7 7.1 8.6 99 0.0 S 7 9 4 5 1028.7 1028.9 0.0
16/07:30am 9.1 6.4 9.0 99 0.0 SSE 13 17 7 9 1028.7 1028.9 0.0
16/07:00am 10.1 7.6 9.6 97 0.3 S 13 19 7 10 1028.4 1028.6 0.0
16/06:30am 10.1 8.4 9.8 98 0.2 SSW 9 11 5 6 1028.1 1028.3 0.0
16/06:00am 10.0 7.9 9.7 98 0.2 S 11 13 6 7 1027.7 1027.9 0.0
16/05:30am 10.1 7.7 10.0 99 0.1 S 13 19 7 10 1027.7 1027.9 0.0
16/05:00am 10.2 6.9 9.6 96 0.3 S 17 24 9 13 1027.5 1027.7 0.0
16/04:30am 10.4 7.3 10.2 99 0.1 S 17 24 9 13 1027.4 1027.6 0.0
16/04:00am 10.8 7.5 9.7 93 0.6 SSE 17 20 9 11 1027.5 1027.7 0.0
16/03:30am 11.6 7.5 8.5 81 1.5 SSE 20 26 11 14 1027.5 1027.7 0.0
16/03:00am 12.3 7.6 7.8 74 2.2 S 22 28 12 15 1027.4 1027.6 0.0
16/02:30am 12.4 8.0 7.5 72 2.4 SSE 20 28 11 15 1027.4 1027.6 0.0
16/02:00am 12.4 8.5 7.3 71 2.5 SSE 17 24 9 13 1027.5 1027.7 0.0
16/01:30am 12.5 8.2 7.2 70 2.6 SSE 19 28 10 15 1027.6 1027.8 0.0
16/01:00am 12.3 8.4 7.0 70 2.6 SSE 17 22 9 12 1027.6 1027.8 0.0
16/12:30am 12.3 8.0 7.0 70 2.6 SSE 19 24 10 13 1027.5 1027.7 0.0
16/12:00am 12.3 8.3 6.8 69 2.6 SSE 17 20 9 11 1028.0 1028.2 0.0
 
Date/Time
EST
Temp
°C
App
Temp
°C
Dew
Point
°C
Rel
Hum
%
Delta-T
°C
Wind Press
QNH
hPa
Press
MSL
hPa
Rain since
9am
mm
Dir  Spd
km/h
Gust
km/h
Spd
kts
Gust
kts
15/11:30pm 12.6 8.1 6.9 68 2.8 SSE 20 26 11 14 1028.3 1028.5 0.0
15/11:00pm 12.7 8.1 6.7 67 2.9 SSE 20 26 11 14 1028.5 1028.7 0.0
15/10:30pm 12.8 7.8 6.6 66 3.0 SSE 22 32 12 17 1028.6 1028.8 0.0
15/10:00pm 12.8 8.2 6.4 65 3.1 S 20 28 11 15 1028.8 1029.0 0.0
15/09:30pm 13.0 8.6 6.6 65 3.1 SSE 19 24 10 13 1028.8 1029.0 0.0
15/09:00pm 13.1 8.1 6.5 64 3.2 S 22 32 12 17 1028.8 1029.0 0.0
15/08:30pm 13.1 9.4 6.5 64 3.2 S 15 20 8 11 1028.6 1028.8 0.0
15/08:00pm 13.2 8.6 6.5 64 3.2 SSE 20 28 11 15 1028.4 1028.6 0.0
15/07:30pm 13.2 8.8 6.5 64 3.2 SSE 19 26 10 14 1028.2 1028.4 0.0
15/07:00pm 13.2 8.2 6.5 64 3.2 SSE 22 32 12 17 1028.1 1028.3 0.0
15/06:30pm 13.4 8.4 6.5 63 3.3 SSE 22 32 12 17 1027.5 1027.7 0.0
15/06:00pm 13.7 8.7 6.3 61 3.5 S 22 30 12 16 1027.2 1027.4 0.0
15/05:30pm 14.1 9.0 6.2 59 3.8 SSE 22 30 12 16 1027.1 1027.3 0.0
15/05:00pm 14.5 9.5 6.3 58 4.0 SSE 22 32 12 17 1027.1 1027.3 0.0

Other formats

Comma delimited format used in spreadsheet applications
http://www.bom.gov.au/fwo/IDN60801/IDN60801.94686.axf

JavaScript Object Notation format (JSON) in row-major order
http://www.bom.gov.au/fwo/IDN60801/IDN60801.94686.json

Data quality

Most of these data are generated automatically and are frequently updated. Quality checks on data are not normally performed. It is possible for incorrect values to appear. Refer to information at About Latest Weather Observations and please check the disclaimer before using these data.